sensor_id;sensor_type;location;lat;lon;timestamp;pressure;altitude;pressure_sealevel;temperature;humidity
42603;BME280;28233;55.748;48.752;2023-07-28T00:01:19;98642.47;;;21.90;75.59
42603;BME280;28233;55.748;48.752;2023-07-28T00:03:21;98641.28;;;21.88;76.25
42603;BME280;28233;55.748;48.752;2023-07-28T00:05:24;98631.38;;;21.83;76.34
42603;BME280;28233;55.748;48.752;2023-07-28T00:07:27;98636.97;;;21.83;76.39
42603;BME280;28233;55.748;48.752;2023-07-28T00:09:30;98633.78;;;21.81;76.68
42603;BME280;28233;55.748;48.752;2023-07-28T00:11:33;98633.41;;;21.79;76.62
42603;BME280;28233;55.748;48.752;2023-07-28T00:13:36;98646.63;;;21.75;76.95
42603;BME280;28233;55.748;48.752;2023-07-28T00:15:38;98642.63;;;21.76;76.89
42603;BME280;28233;55.748;48.752;2023-07-28T00:17:41;98643.50;;;21.73;77.16
42603;BME280;28233;55.748;48.752;2023-07-28T00:19:45;98644.69;;;21.72;77.08
42603;BME280;28233;55.748;48.752;2023-07-28T00:21:48;98651.13;;;21.69;77.18
42603;BME280;28233;55.748;48.752;2023-07-28T00:23:51;98648.72;;;21.67;77.27
42603;BME280;28233;55.748;48.752;2023-07-28T00:25:54;98653.91;;;21.69;76.91
42603;BME280;28233;55.748;48.752;2023-07-28T00:27:57;98645.16;;;21.67;76.88
42603;BME280;28233;55.748;48.752;2023-07-28T00:29:59;98649.50;;;21.68;76.80
42603;BME280;28233;55.748;48.752;2023-07-28T00:32:02;98646.72;;;21.68;76.71
42603;BME280;28233;55.748;48.752;2023-07-28T00:34:05;98649.13;;;21.66;76.68
42603;BME280;28233;55.748;48.752;2023-07-28T00:36:07;98646.34;;;21.66;76.39
42603;BME280;28233;55.748;48.752;2023-07-28T00:38:10;98653.53;;;21.67;75.72
42603;BME280;28233;55.748;48.752;2023-07-28T00:40:13;98650.75;;;21.67;75.98
42603;BME280;28233;55.748;48.752;2023-07-28T00:42:15;98655.16;;;21.64;76.02
42603;BME280;28233;55.748;48.752;2023-07-28T00:44:18;98654.38;;;21.64;76.28
42603;BME280;28233;55.748;48.752;2023-07-28T00:46:21;98648.41;;;21.62;76.26
42603;BME280;28233;55.748;48.752;2023-07-28T00:48:24;98653.63;;;21.60;75.97
42603;BME280;28233;55.748;48.752;2023-07-28T00:50:28;98643.22;;;21.60;75.94
42603;BME280;28233;55.748;48.752;2023-07-28T00:52:31;98642.03;;;21.61;75.92
42603;BME280;28233;55.748;48.752;2023-07-28T00:54:36;98646.44;;;21.59;75.58
42603;BME280;28233;55.748;48.752;2023-07-28T00:56:38;98644.06;;;21.57;76.06
42603;BME280;28233;55.748;48.752;2023-07-28T00:58:41;98642.91;;;21.55;76.23
42603;BME280;28233;55.748;48.752;2023-07-28T01:00:44;98643.31;;;21.53;76.18
42603;BME280;28233;55.748;48.752;2023-07-28T01:02:47;98647.69;;;21.54;76.24
42603;BME280;28233;55.748;48.752;2023-07-28T01:04:50;98648.91;;;21.53;76.30
42603;BME280;28233;55.748;48.752;2023-07-28T01:07:17;98648.50;;;21.55;76.29
42603;BME280;28233;55.748;48.752;2023-07-28T01:09:27;98655.66;;;21.56;76.03
42603;BME280;28233;55.748;48.752;2023-07-28T01:11:31;98646.50;;;21.51;75.88
42603;BME280;28233;55.748;48.752;2023-07-28T01:13:34;98654.03;;;21.58;76.07
42603;BME280;28233;55.748;48.752;2023-07-28T01:15:37;98654.81;;;21.59;76.04
42603;BME280;28233;55.748;48.752;2023-07-28T01:17:39;98659.63;;;21.58;76.22
42603;BME280;28233;55.748;48.752;2023-07-28T01:19:42;98650.44;;;21.58;76.07
42603;BME280;28233;55.748;48.752;2023-07-28T01:21:50;98655.19;;;21.61;76.64
42603;BME280;28233;55.748;48.752;2023-07-28T01:24:04;98654.41;;;21.60;76.75
42603;BME280;28233;55.748;48.752;2023-07-28T01:26:10;98652.41;;;21.61;77.00
42603;BME280;28233;55.748;48.752;2023-07-28T01:28:15;98650.41;;;21.61;76.99
42603;BME280;28233;55.748;48.752;2023-07-28T01:30:19;98640.81;;;21.62;77.20
42603;BME280;28233;55.748;48.752;2023-07-28T01:32:23;98643.59;;;21.62;77.28
42603;BME280;28233;55.748;48.752;2023-07-28T01:34:26;98650.78;;;21.63;76.81
42603;BME280;28233;55.748;48.752;2023-07-28T01:36:28;98652.31;;;21.68;76.66
42603;BME280;28233;55.748;48.752;2023-07-28T01:38:31;98644.31;;;21.70;76.95
42603;BME280;28233;55.748;48.752;2023-07-28T01:40:34;98650.28;;;21.72;76.90
42603;BME280;28233;55.748;48.752;2023-07-28T01:42:36;98641.09;;;21.71;76.66
42603;BME280;28233;55.748;48.752;2023-07-28T01:44:39;98643.84;;;21.75;76.71
42603;BME280;28233;55.748;48.752;2023-07-28T01:46:42;98643.44;;;21.77;77.17
42603;BME280;28233;55.748;48.752;2023-07-28T01:48:44;98644.22;;;21.77;76.73
42603;BME280;28233;55.748;48.752;2023-07-28T01:50:47;98647.78;;;21.78;77.30
42603;BME280;28233;55.748;48.752;2023-07-28T01:52:50;98639.41;;;21.78;77.42
42603;BME280;28233;55.748;48.752;2023-07-28T01:54:52;98644.19;;;21.81;76.92
42603;BME280;28233;55.748;48.752;2023-07-28T01:56:55;98643.75;;;21.82;77.14
42603;BME280;28233;55.748;48.752;2023-07-28T01:58:58;98638.97;;;21.83;77.11
42603;BME280;28233;55.748;48.752;2023-07-28T02:01:00;98652.88;;;21.86;76.62
42603;BME280;28233;55.748;48.752;2023-07-28T02:03:03;98657.63;;;21.89;76.96
42603;BME280;28233;55.748;48.752;2023-07-28T02:05:06;98658.00;;;21.91;76.92
42603;BME280;28233;55.748;48.752;2023-07-28T02:07:09;98661.19;;;21.93;77.24
42603;BME280;28233;55.748;48.752;2023-07-28T02:09:12;98654.78;;;21.97;76.46
42603;BME280;28233;55.748;48.752;2023-07-28T02:11:15;98659.16;;;21.94;76.52
42603;BME280;28233;55.748;48.752;2023-07-28T02:13:17;98666.69;;;22.01;76.23
42603;BME280;28233;55.748;48.752;2023-07-28T02:15:20;98673.41;;;22.07;75.93
42603;BME280;28233;55.748;48.752;2023-07-28T02:17:23;98663.78;;;22.08;75.81
42603;BME280;28233;55.748;48.752;2023-07-28T02:19:26;98659.34;;;22.10;76.06
42603;BME280;28233;55.748;48.752;2023-07-28T02:21:28;98660.50;;;22.13;75.92
42603;BME280;28233;55.748;48.752;2023-07-28T02:23:32;98663.69;;;22.15;75.79
42603;BME280;28233;55.748;48.752;2023-07-28T02:25:35;98667.63;;;22.21;76.12
42603;BME280;28233;55.748;48.752;2023-07-28T02:27:38;98664.00;;;22.24;75.12
42603;BME280;28233;55.748;48.752;2023-07-28T02:29:41;98666.75;;;22.28;75.34
42603;BME280;28233;55.748;48.752;2023-07-28T02:31:44;98664.25;;;22.33;75.18
42603;BME280;28233;55.748;48.752;2023-07-28T02:33:47;98661.84;;;22.35;75.15
42603;BME280;28233;55.748;48.752;2023-07-28T02:35:49;98662.13;;;22.41;75.14
42603;BME280;28233;55.748;48.752;2023-07-28T02:37:52;98665.69;;;22.45;75.24
42603;BME280;28233;55.748;48.752;2023-07-28T02:39:55;98670.38;;;22.52;75.22
42603;BME280;28233;55.748;48.752;2023-07-28T02:41:58;98669.91;;;22.57;75.50
42603;BME280;28233;55.748;48.752;2023-07-28T02:44:00;98673.44;;;22.61;75.25
42603;BME280;28233;55.748;48.752;2023-07-28T02:46:04;98670.56;;;22.65;75.25
42603;BME280;28233;55.748;48.752;2023-07-28T02:48:07;98672.56;;;22.68;75.22
42603;BME280;28233;55.748;48.752;2023-07-28T02:50:10;98665.34;;;22.67;75.31
42603;BME280;28233;55.748;48.752;2023-07-28T02:52:13;98674.06;;;22.72;75.65
42603;BME280;28233;55.748;48.752;2023-07-28T02:54:15;98678.81;;;22.75;75.35
42603;BME280;28233;55.748;48.752;2023-07-28T02:56:18;98671.53;;;22.82;75.27
42603;BME280;28233;55.748;48.752;2023-07-28T02:58:23;98679.03;;;22.88;74.79
42603;BME280;28233;55.748;48.752;2023-07-28T03:00:25;98674.13;;;22.92;74.17
42603;BME280;28233;55.748;48.752;2023-07-28T03:02:28;98679.25;;;22.97;74.34
42603;BME280;28233;55.748;48.752;2023-07-28T03:04:31;98669.69;;;22.95;74.16
42603;BME280;28233;55.748;48.752;2023-07-28T03:06:34;98679.22;;;23.01;73.65
42603;BME280;28233;55.748;48.752;2023-07-28T03:08:37;98675.19;;;23.02;73.94
42603;BME280;28233;55.748;48.752;2023-07-28T03:10:39;98674.38;;;23.05;73.91
42603;BME280;28233;55.748;48.752;2023-07-28T03:12:42;98685.50;;;23.09;73.19
42603;BME280;28233;55.748;48.752;2023-07-28T03:14:45;98677.41;;;23.14;73.11
42603;BME280;28233;55.748;48.752;2023-07-28T03:16:48;98676.13;;;23.19;72.90
42603;BME280;28233;55.748;48.752;2023-07-28T03:18:50;98684.47;;;23.23;73.06
42603;BME280;28233;55.748;48.752;2023-07-28T03:20:53;98675.13;;;23.29;72.88
42603;BME280;28233;55.748;48.752;2023-07-28T03:22:55;98673.84;;;23.34;72.21
42603;BME280;28233;55.748;48.752;2023-07-28T03:24:58;98675.91;;;23.30;71.73
42603;BME280;28233;55.748;48.752;2023-07-28T03:27:01;98676.66;;;23.34;72.58
42603;BME280;28233;55.748;48.752;2023-07-28T03:29:03;98674.94;;;23.40;72.09
42603;BME280;28233;55.748;48.752;2023-07-28T03:31:06;98680.47;;;23.43;71.92
42603;BME280;28233;55.748;48.752;2023-07-28T03:33:09;98676.44;;;23.45;70.94
42603;BME280;28233;55.748;48.752;2023-07-28T03:35:12;98672.00;;;23.47;71.27
42603;BME280;28233;55.748;48.752;2023-07-28T03:37:15;98672.28;;;23.53;71.54
42603;BME280;28233;55.748;48.752;2023-07-28T03:39:18;98679.31;;;23.61;71.26
42603;BME280;28233;55.748;48.752;2023-07-28T03:41:20;98681.72;;;23.62;71.18
42603;BME280;28233;55.748;48.752;2023-07-28T03:43:23;98686.44;;;23.66;71.42
42603;BME280;28233;55.748;48.752;2023-07-28T03:45:26;98680.31;;;23.74;70.93
42603;BME280;28233;55.748;48.752;2023-07-28T03:47:28;98693.75;;;23.83;70.58
42603;BME280;28233;55.748;48.752;2023-07-28T03:49:31;98691.69;;;23.87;70.34
42603;BME280;28233;55.748;48.752;2023-07-28T03:51:34;98692.00;;;23.89;70.59
42603;BME280;28233;55.748;48.752;2023-07-28T03:53:36;98691.22;;;23.89;70.41
42603;BME280;28233;55.748;48.752;2023-07-28T03:55:39;98688.78;;;23.91;69.91
42603;BME280;28233;55.748;48.752;2023-07-28T03:57:41;98682.41;;;23.90;69.05
42603;BME280;28233;55.748;48.752;2023-07-28T03:59:44;98689.41;;;23.98;68.72
42603;BME280;28233;55.748;48.752;2023-07-28T04:01:47;98696.63;;;23.99;68.41
42603;BME280;28233;55.748;48.752;2023-07-28T04:03:50;98691.75;;;24.03;68.72
42603;BME280;28233;55.748;48.752;2023-07-28T04:05:52;98700.00;;;24.11;68.51
42603;BME280;28233;55.748;48.752;2023-07-28T04:07:55;98698.25;;;24.17;69.44
42603;BME280;28233;55.748;48.752;2023-07-28T04:09:58;98692.06;;;24.25;68.25
42603;BME280;28233;55.748;48.752;2023-07-28T04:12:01;98699.53;;;24.32;68.02
42603;BME280;28233;55.748;48.752;2023-07-28T04:14:04;98694.97;;;24.38;66.61
42603;BME280;28233;55.748;48.752;2023-07-28T04:16:07;98700.06;;;24.43;67.59
42603;BME280;28233;55.748;48.752;2023-07-28T04:18:10;98697.22;;;24.47;67.54
42603;BME280;28233;55.748;48.752;2023-07-28T04:20:13;98691.44;;;24.54;66.48
42603;BME280;28233;55.748;48.752;2023-07-28T04:22:15;98696.47;;;24.63;65.61
42603;BME280;28233;55.748;48.752;2023-07-28T04:24:23;98694.69;;;24.69;65.64
42603;BME280;28233;55.748;48.752;2023-07-28T04:26:27;98694.88;;;24.78;65.70
42603;BME280;28233;55.748;48.752;2023-07-28T04:28:30;98697.16;;;24.83;65.43
42603;BME280;28233;55.748;48.752;2023-07-28T04:30:32;98689.91;;;24.86;64.95
42603;BME280;28233;55.748;48.752;2023-07-28T04:32:35;98694.72;;;24.85;63.94
42603;BME280;28233;55.748;48.752;2023-07-28T04:34:38;98689.78;;;24.89;63.88
42603;BME280;28233;55.748;48.752;2023-07-28T04:36:41;98690.88;;;24.96;63.73
42603;BME280;28233;55.748;48.752;2023-07-28T04:38:44;98693.66;;;24.96;63.63
42603;BME280;28233;55.748;48.752;2023-07-28T04:40:46;98690.41;;;24.97;64.35
42603;BME280;28233;55.748;48.752;2023-07-28T04:42:49;98689.91;;;25.02;64.15
42603;BME280;28233;55.748;48.752;2023-07-28T04:44:55;98694.97;;;25.07;64.17
42603;BME280;28233;55.748;48.752;2023-07-28T04:46:57;98691.81;;;25.05;64.21
42603;BME280;28233;55.748;48.752;2023-07-28T04:49:00;98692.97;;;25.08;64.39
42603;BME280;28233;55.748;48.752;2023-07-28T04:51:05;98695.94;;;25.17;64.37
42603;BME280;28233;55.748;48.752;2023-07-28T04:53:07;98689.44;;;25.20;64.53
42603;BME280;28233;55.748;48.752;2023-07-28T04:55:10;98686.81;;;25.29;64.09
42603;BME280;28233;55.748;48.752;2023-07-28T04:57:13;98686.25;;;25.35;63.53
42603;BME280;28233;55.748;48.752;2023-07-28T04:59:17;98681.34;;;25.39;63.68
42603;BME280;28233;55.748;48.752;2023-07-28T05:01:20;98683.06;;;25.49;63.94
42603;BME280;28233;55.748;48.752;2023-07-28T05:03:23;98688.50;;;25.56;63.44
42603;BME280;28233;55.748;48.752;2023-07-28T05:05:25;98684.81;;;25.59;63.72
42603;BME280;28233;55.748;48.752;2023-07-28T05:07:28;98685.03;;;25.65;63.04
42603;BME280;28233;55.748;48.752;2023-07-28T05:09:31;98674.06;;;25.70;63.12
42603;BME280;28233;55.748;48.752;2023-07-28T05:11:34;98674.28;;;25.76;63.79
42603;BME280;28233;55.748;48.752;2023-07-28T05:13:38;98672.84;;;25.84;63.58
42603;BME280;28233;55.748;48.752;2023-07-28T05:15:40;98677.16;;;25.89;63.01
42603;BME280;28233;55.748;48.752;2023-07-28T05:17:43;98671.44;;;25.92;62.93
42603;BME280;28233;55.748;48.752;2023-07-28T05:19:46;98669.75;;;25.95;62.67
42603;BME280;28233;55.748;48.752;2023-07-28T05:21:48;98662.00;;;25.99;63.04
42603;BME280;28233;55.748;48.752;2023-07-28T05:23:51;98660.19;;;26.05;62.97
42603;BME280;28233;55.748;48.752;2023-07-28T05:25:54;98656.38;;;26.12;62.85
42603;BME280;28233;55.748;48.752;2023-07-28T05:27:56;98652.34;;;26.13;62.50
42603;BME280;28233;55.748;48.752;2023-07-28T05:29:59;98661.22;;;26.24;62.37
42603;BME280;28233;55.748;48.752;2023-07-28T05:32:02;98653.38;;;26.32;62.79
42603;BME280;28233;55.748;48.752;2023-07-28T05:34:06;98655.97;;;26.39;63.59
42603;BME280;28233;55.748;48.752;2023-07-28T05:36:08;98664.97;;;26.47;63.59
42603;BME280;28233;55.748;48.752;2023-07-28T05:38:11;98661.56;;;26.52;63.21
42603;BME280;28233;55.748;48.752;2023-07-28T05:40:14;98662.16;;;26.60;63.30
42603;BME280;28233;55.748;48.752;2023-07-28T05:42:17;98655.97;;;26.65;63.98
42603;BME280;28233;55.748;48.752;2023-07-28T05:44:19;98655.84;;;26.68;63.09
42603;BME280;28233;55.748;48.752;2023-07-28T05:46:22;98667.91;;;26.69;62.44
42603;BME280;28233;55.748;48.752;2023-07-28T05:48:25;98662.16;;;26.72;62.18
42603;BME280;28233;55.748;48.752;2023-07-28T05:50:28;98653.81;;;26.82;63.20
42603;BME280;28233;55.748;48.752;2023-07-28T05:52:31;98662.38;;;26.91;63.33
42603;BME280;28233;55.748;48.752;2023-07-28T05:54:34;98661.53;;;27.03;62.89
42603;BME280;28233;55.748;48.752;2023-07-28T05:56:36;98663.91;;;27.05;62.88
42603;BME280;28233;55.748;48.752;2023-07-28T05:58:39;98657.81;;;27.06;62.54
42603;BME280;28233;55.748;48.752;2023-07-28T06:00:42;98659.41;;;27.07;62.61
42603;BME280;28233;55.748;48.752;2023-07-28T06:02:45;98661.31;;;27.10;61.93
42603;BME280;28233;55.748;48.752;2023-07-28T06:04:48;98655.84;;;27.16;62.53
42603;BME280;28233;55.748;48.752;2023-07-28T06:06:51;98665.34;;;27.22;61.89
42603;BME280;28233;55.748;48.752;2023-07-28T06:08:54;98670.16;;;27.34;62.94
42603;BME280;28233;55.748;48.752;2023-07-28T06:10:56;98668.34;;;27.40;61.50
42603;BME280;28233;55.748;48.752;2023-07-28T06:13:00;98664.47;;;27.47;61.32
42603;BME280;28233;55.748;48.752;2023-07-28T06:15:03;98663.75;;;27.56;61.58
42603;BME280;28233;55.748;48.752;2023-07-28T06:17:06;98661.47;;;27.64;61.34
42603;BME280;28233;55.748;48.752;2023-07-28T06:19:09;98655.44;;;27.74;61.90
42603;BME280;28233;55.748;48.752;2023-07-28T06:21:12;98660.72;;;27.85;62.00
42603;BME280;28233;55.748;48.752;2023-07-28T06:23:15;98661.09;;;27.96;62.77
42603;BME280;28233;55.748;48.752;2023-07-28T06:25:18;98661.94;;;28.06;61.12
42603;BME280;28233;55.748;48.752;2023-07-28T06:27:21;98669.34;;;28.13;60.24
42603;BME280;28233;55.748;48.752;2023-07-28T06:29:24;98664.88;;;28.24;60.51
42603;BME280;28233;55.748;48.752;2023-07-28T06:31:26;98680.59;;;28.35;60.01
42603;BME280;28233;55.748;48.752;2023-07-28T06:33:29;98663.38;;;28.42;60.53
42603;BME280;28233;55.748;48.752;2023-07-28T06:35:32;98669.53;;;28.50;59.58
42603;BME280;28233;55.748;48.752;2023-07-28T06:37:38;98667.22;;;28.57;58.58
42603;BME280;28233;55.748;48.752;2023-07-28T06:39:41;98669.13;;;28.60;58.20
42603;BME280;28233;55.748;48.752;2023-07-28T06:41:43;98661.59;;;28.66;58.54
42603;BME280;28233;55.748;48.752;2023-07-28T06:43:47;98671.69;;;28.77;57.55
42603;BME280;28233;55.748;48.752;2023-07-28T06:45:51;98661.97;;;28.87;57.76
42603;BME280;28233;55.748;48.752;2023-07-28T06:47:54;98660.44;;;28.95;57.90
42603;BME280;28233;55.748;48.752;2023-07-28T06:49:57;98662.97;;;29.02;57.51
42603;BME280;28233;55.748;48.752;2023-07-28T06:51:59;98670.69;;;29.11;57.69
42603;BME280;28233;55.748;48.752;2023-07-28T06:54:03;98665.03;;;29.20;57.84
42603;BME280;28233;55.748;48.752;2023-07-28T06:56:05;98663.63;;;29.25;57.67
42603;BME280;28233;55.748;48.752;2023-07-28T06:58:08;98668.66;;;29.30;57.09
42603;BME280;28233;55.748;48.752;2023-07-28T07:00:12;98662.69;;;29.37;56.99
42603;BME280;28233;55.748;48.752;2023-07-28T07:02:15;98662.38;;;29.44;56.25
42603;BME280;28233;55.748;48.752;2023-07-28T07:04:19;98664.59;;;29.49;55.80
42603;BME280;28233;55.748;48.752;2023-07-28T07:06:21;98658.44;;;29.60;56.82
42603;BME280;28233;55.748;48.752;2023-07-28T07:08:24;98658.47;;;29.69;56.69
42603;BME280;28233;55.748;48.752;2023-07-28T07:10:27;98669.16;;;29.75;55.31
42603;BME280;28233;55.748;48.752;2023-07-28T07:12:30;98653.25;;;29.77;55.79
42603;BME280;28233;55.748;48.752;2023-07-28T07:14:33;98655.75;;;29.84;55.80
42603;BME280;28233;55.748;48.752;2023-07-28T07:16:38;98656.25;;;29.92;54.47
42603;BME280;28233;55.748;48.752;2023-07-28T07:18:41;98657.47;;;30.00;55.58
42603;BME280;28233;55.748;48.752;2023-07-28T07:20:43;98650.69;;;30.07;54.36
42603;BME280;28233;55.748;48.752;2023-07-28T07:22:47;98653.19;;;30.14;54.15
42603;BME280;28233;55.748;48.752;2023-07-28T07:24:49;98647.66;;;30.20;56.54
42603;BME280;28233;55.748;48.752;2023-07-28T07:26:52;98647.38;;;30.27;54.40
42603;BME280;28233;55.748;48.752;2023-07-28T07:28:55;98654.44;;;30.31;53.80
42603;BME280;28233;55.748;48.752;2023-07-28T07:30:58;98648.13;;;30.37;53.57
42603;BME280;28233;55.748;48.752;2023-07-28T07:33:01;98640.03;;;30.44;52.85
42603;BME280;28233;55.748;48.752;2023-07-28T07:35:04;98646.91;;;30.52;53.78
42603;BME280;28233;55.748;48.752;2023-07-28T07:37:07;98638.72;;;30.54;53.83
42603;BME280;28233;55.748;48.752;2023-07-28T07:39:09;98632.72;;;30.62;54.76
42603;BME280;28233;55.748;48.752;2023-07-28T07:41:13;98634.72;;;30.70;52.88
42603;BME280;28233;55.748;48.752;2023-07-28T07:43:21;98639.09;;;30.71;52.21
42603;BME280;28233;55.748;48.752;2023-07-28T07:45:24;98634.06;;;30.75;52.97
42603;BME280;28233;55.748;48.752;2023-07-28T07:47:27;98623.00;;;30.77;52.58
42603;BME280;28233;55.748;48.752;2023-07-28T07:49:29;98628.03;;;30.83;52.48
42603;BME280;28233;55.748;48.752;2023-07-28T07:51:32;98627.31;;;30.97;53.22
42603;BME280;28233;55.748;48.752;2023-07-28T07:53:37;98629.00;;;31.04;52.35
42603;BME280;28233;55.748;48.752;2023-07-28T07:55:40;98620.81;;;31.06;51.71
42603;BME280;28233;55.748;48.752;2023-07-28T07:57:42;98622.28;;;31.16;51.27
42603;BME280;28233;55.748;48.752;2023-07-28T07:59:45;98624.97;;;31.20;50.72
42603;BME280;28233;55.748;48.752;2023-07-28T08:01:48;98618.31;;;31.23;50.16
42603;BME280;28233;55.748;48.752;2023-07-28T08:03:51;98610.72;;;31.29;51.03
42603;BME280;28233;55.748;48.752;2023-07-28T08:05:56;98608.75;;;31.35;49.92
42603;BME280;28233;55.748;48.752;2023-07-28T08:07:59;98604.59;;;31.45;49.51
42603;BME280;28233;55.748;48.752;2023-07-28T08:10:02;98608.13;;;31.55;49.72
42603;BME280;28233;55.748;48.752;2023-07-28T08:12:05;98607.56;;;31.66;49.05
42603;BME280;28233;55.748;48.752;2023-07-28T08:14:08;98605.59;;;31.72;48.69
42603;BME280;28233;55.748;48.752;2023-07-28T08:16:11;98610.59;;;31.77;49.20
42603;BME280;28233;55.748;48.752;2023-07-28T08:18:14;98601.66;;;31.84;49.74
42603;BME280;28233;55.748;48.752;2023-07-28T08:20:17;98606.41;;;31.87;47.52
42603;BME280;28233;55.748;48.752;2023-07-28T08:22:19;98606.47;;;31.93;48.14
42603;BME280;28233;55.748;48.752;2023-07-28T08:24:22;98608.94;;;32.00;44.08
42603;BME280;28233;55.748;48.752;2023-07-28T08:26:25;98604.81;;;32.16;42.73
42603;BME280;28233;55.748;48.752;2023-07-28T08:28:28;98614.03;;;32.26;45.36
42603;BME280;28233;55.748;48.752;2023-07-28T08:30:31;98605.31;;;32.29;47.41
42603;BME280;28233;55.748;48.752;2023-07-28T08:32:34;98617.22;;;32.33;46.55
42603;BME280;28233;55.748;48.752;2023-07-28T08:34:37;98610.84;;;32.38;43.91
42603;BME280;28233;55.748;48.752;2023-07-28T08:36:40;98605.25;;;32.44;44.52
42603;BME280;28233;55.748;48.752;2023-07-28T08:38:42;98602.50;;;32.50;45.65
42603;BME280;28233;55.748;48.752;2023-07-28T08:40:47;98595.44;;;32.60;48.37
42603;BME280;28233;55.748;48.752;2023-07-28T08:42:50;98596.81;;;32.64;45.63
42603;BME280;28233;55.748;48.752;2023-07-28T08:44:53;98599.06;;;32.60;45.49
42603;BME280;28233;55.748;48.752;2023-07-28T08:46:56;98604.41;;;32.53;46.97
42603;BME280;28233;55.748;48.752;2023-07-28T08:48:59;98601.31;;;32.56;47.75
42603;BME280;28233;55.748;48.752;2023-07-28T08:51:02;98601.97;;;32.66;46.72
42603;BME280;28233;55.748;48.752;2023-07-28T08:53:06;98596.75;;;32.79;46.39
42603;BME280;28233;55.748;48.752;2023-07-28T08:55:09;98605.44;;;32.91;47.16
42603;BME280;28233;55.748;48.752;2023-07-28T08:57:12;98600.66;;;33.02;45.70
42603;BME280;28233;55.748;48.752;2023-07-28T08:59:22;98589.84;;;33.06;46.34
42603;BME280;28233;55.748;48.752;2023-07-28T09:01:25;98596.34;;;33.07;46.51
42603;BME280;28233;55.748;48.752;2023-07-28T09:03:28;98592.22;;;33.08;46.07
42603;BME280;28233;55.748;48.752;2023-07-28T09:05:33;98589.38;;;33.08;46.92
42603;BME280;28233;55.748;48.752;2023-07-28T09:07:36;98592.84;;;33.18;48.21
42603;BME280;28233;55.748;48.752;2023-07-28T09:09:39;98592.13;;;33.23;44.76
42603;BME280;28233;55.748;48.752;2023-07-28T09:11:46;98587.28;;;33.29;45.26
42603;BME280;28233;55.748;48.752;2023-07-28T09:13:50;98584.56;;;33.40;45.60
42603;BME280;28233;55.748;48.752;2023-07-28T09:15:54;98587.75;;;33.48;45.21
42603;BME280;28233;55.748;48.752;2023-07-28T09:18:00;98585.75;;;33.54;45.12
42603;BME280;28233;55.748;48.752;2023-07-28T09:20:03;98585.31;;;33.61;44.43
42603;BME280;28233;55.748;48.752;2023-07-28T09:22:08;98586.72;;;33.72;45.37
42603;BME280;28233;55.748;48.752;2023-07-28T09:24:12;98587.75;;;33.74;43.85
42603;BME280;28233;55.748;48.752;2023-07-28T09:26:15;98574.38;;;33.80;43.63
42603;BME280;28233;55.748;48.752;2023-07-28T09:28:18;98574.69;;;33.88;42.74
42603;BME280;28233;55.748;48.752;2023-07-28T09:30:23;98577.81;;;33.90;44.05
42603;BME280;28233;55.748;48.752;2023-07-28T09:32:28;98582.78;;;33.95;44.69
42603;BME280;28233;55.748;48.752;2023-07-28T09:34:33;98583.63;;;34.01;44.36
42603;BME280;28233;55.748;48.752;2023-07-28T09:36:36;98572.25;;;34.07;44.25
42603;BME280;28233;55.748;48.752;2023-07-28T09:38:41;98570.47;;;34.09;44.84
42603;BME280;28233;55.748;48.752;2023-07-28T09:40:45;98571.34;;;34.21;43.98
42603;BME280;28233;55.748;48.752;2023-07-28T09:42:49;98577.88;;;34.27;41.87
42603;BME280;28233;55.748;48.752;2023-07-28T09:44:57;98572.66;;;34.26;42.65
42603;BME280;28233;55.748;48.752;2023-07-28T09:47:00;98571.66;;;34.29;43.72
42603;BME280;28233;55.748;48.752;2023-07-28T09:49:10;98572.19;;;34.33;45.07
42603;BME280;28233;55.748;48.752;2023-07-28T09:51:18;98566.53;;;34.39;39.42
42603;BME280;28233;55.748;48.752;2023-07-28T09:53:26;98560.31;;;34.40;40.08
42603;BME280;28233;55.748;48.752;2023-07-28T09:55:31;98559.25;;;34.38;40.03
42603;BME280;28233;55.748;48.752;2023-07-28T09:58:03;98566.56;;;34.44;40.20
42603;BME280;28233;55.748;48.752;2023-07-28T10:00:03;98566.13;;;34.57;38.16
42603;BME280;28233;55.748;48.752;2023-07-28T10:02:08;98567.78;;;34.69;39.78
42603;BME280;28233;55.748;48.752;2023-07-28T10:04:11;98560.84;;;34.82;40.78
42603;BME280;28233;55.748;48.752;2023-07-28T10:06:14;98567.63;;;34.96;40.77
42603;BME280;28233;55.748;48.752;2023-07-28T10:08:19;98568.69;;;35.04;37.80
42603;BME280;28233;55.748;48.752;2023-07-28T10:10:22;98563.88;;;35.21;35.98
42603;BME280;28233;55.748;48.752;2023-07-28T10:12:25;98564.94;;;35.35;34.85
42603;BME280;28233;55.748;48.752;2023-07-28T10:14:35;98565.50;;;35.56;35.03
42603;BME280;28233;55.748;48.752;2023-07-28T10:16:40;98554.38;;;35.75;34.50
42603;BME280;28233;55.748;48.752;2023-07-28T10:19:03;98549.41;;;35.98;36.73
42603;BME280;28233;55.748;48.752;2023-07-28T10:21:10;98549.16;;;36.07;37.00
42603;BME280;28233;55.748;48.752;2023-07-28T10:23:22;98553.09;;;36.10;37.72
42603;BME280;28233;55.748;48.752;2023-07-28T10:25:25;98548.66;;;35.97;36.55
42603;BME280;28233;55.748;48.752;2023-07-28T10:27:40;98551.25;;;35.90;35.51
42603;BME280;28233;55.748;48.752;2023-07-28T10:29:56;98545.78;;;36.09;33.39
42603;BME280;28233;55.748;48.752;2023-07-28T10:32:00;98537.72;;;36.24;35.15
42603;BME280;28233;55.748;48.752;2023-07-28T10:34:05;98540.06;;;36.31;36.81
42603;BME280;28233;55.748;48.752;2023-07-28T10:38:29;98539.75;;;36.52;37.21
42603;BME280;28233;55.748;48.752;2023-07-28T10:40:35;98540.25;;;36.56;37.37
42603;BME280;28233;55.748;48.752;2023-07-28T10:42:38;98543.41;;;36.58;36.94
42603;BME280;28233;55.748;48.752;2023-07-28T10:44:41;98530.13;;;36.60;37.89
42603;BME280;28233;55.748;48.752;2023-07-28T10:46:44;98530.13;;;36.60;36.19
42603;BME280;28233;55.748;48.752;2023-07-28T10:48:48;98529.03;;;36.75;36.57